sensor_id;sensor_type;location;lat;lon;timestamp;pressure;altitude;pressure_sealevel;temperature;humidity
57050;BME280;42935;50.966;16.992;2024-01-30T00:01:25;103144.83;;;1.01;100.00
57050;BME280;42935;50.966;16.992;2024-01-30T00:04:44;103150.46;;;1.04;99.67
57050;BME280;42935;50.966;16.992;2024-01-30T00:08:06;103145.88;;;1.19;97.98
57050;BME280;42935;50.966;16.992;2024-01-30T00:11:24;103145.27;;;1.13;98.07
57050;BME280;42935;50.966;16.992;2024-01-30T00:14:51;103132.80;;;0.91;100.00
57050;BME280;42935;50.966;16.992;2024-01-30T00:18:09;103106.71;;;0.55;100.00
57050;BME280;42935;50.966;16.992;2024-01-30T00:21:31;103145.27;;;0.72;100.00
57050;BME280;42935;50.966;16.992;2024-01-30T00:24:49;103143.66;;;0.65;100.00
57050;BME280;42935;50.966;16.992;2024-01-30T00:28:09;103150.39;;;0.61;100.00
57050;BME280;42935;50.966;16.992;2024-01-30T00:31:27;103146.41;;;0.55;100.00
57050;BME280;42935;50.966;16.992;2024-01-30T00:34:44;103125.23;;;0.34;100.00
57050;BME280;42935;50.966;16.992;2024-01-30T00:38:03;103149.56;;;0.42;100.00
57050;BME280;42935;50.966;16.992;2024-01-30T00:41:21;103147.56;;;0.39;100.00
57050;BME280;42935;50.966;16.992;2024-01-30T00:44:39;103143.29;;;0.32;100.00
57050;BME280;42935;50.966;16.992;2024-01-30T00:48:00;103156.34;;;0.27;100.00
57050;BME280;42935;50.966;16.992;2024-01-30T00:51:18;103141.73;;;0.21;100.00
57050;BME280;42935;50.966;16.992;2024-01-30T00:54:36;103139.94;;;0.08;100.00
57050;BME280;42935;50.966;16.992;2024-01-30T00:58:01;103150.96;;;0.11;100.00
57050;BME280;42935;50.966;16.992;2024-01-30T01:01:24;103144.71;;;-0.06;100.00
57050;BME280;42935;50.966;16.992;2024-01-30T01:04:44;103149.91;;;-0.01;100.00
57050;BME280;42935;50.966;16.992;2024-01-30T01:08:03;103155.06;;;-0.02;100.00
57050;BME280;42935;50.966;16.992;2024-01-30T01:11:55;103153.98;;;0.04;100.00
57050;BME280;42935;50.966;16.992;2024-01-30T01:15:12;103143.68;;;-0.03;100.00
57050;BME280;42935;50.966;16.992;2024-01-30T01:19:00;103147.34;;;-0.14;100.00
57050;BME280;42935;50.966;16.992;2024-01-30T01:22:19;103157.21;;;0.05;100.00
57050;BME280;42935;50.966;16.992;2024-01-30T01:25:40;103151.61;;;0.09;100.00
57050;BME280;42935;50.966;16.992;2024-01-30T01:28:56;103150.84;;;0.22;100.00
57050;BME280;42935;50.966;16.992;2024-01-30T01:32:16;103150.48;;;0.14;100.00
57050;BME280;42935;50.966;16.992;2024-01-30T01:35:36;103145.62;;;0.09;100.00
57050;BME280;42935;50.966;16.992;2024-01-30T01:39:27;103149.44;;;-0.01;100.00
57050;BME280;42935;50.966;16.992;2024-01-30T01:42:47;103140.86;;;-0.01;100.00
57050;BME280;42935;50.966;16.992;2024-01-30T01:46:06;103148.98;;;-0.10;100.00
57050;BME280;42935;50.966;16.992;2024-01-30T01:49:27;103142.14;;;-0.22;100.00
57050;BME280;42935;50.966;16.992;2024-01-30T01:52:51;103144.29;;;-0.26;100.00
57050;BME280;42935;50.966;16.992;2024-01-30T01:56:10;103154.06;;;-0.10;100.00
57050;BME280;42935;50.966;16.992;2024-01-30T01:59:29;103145.85;;;-0.42;100.00
57050;BME280;42935;50.966;16.992;2024-01-30T02:02:46;103145.88;;;-0.49;100.00
57050;BME280;42935;50.966;16.992;2024-01-30T02:06:04;103138.91;;;-0.44;100.00
57050;BME280;42935;50.966;16.992;2024-01-30T02:09:22;103148.22;;;-0.19;100.00
57050;BME280;42935;50.966;16.992;2024-01-30T02:12:40;103143.66;;;-0.26;100.00
57050;BME280;42935;50.966;16.992;2024-01-30T02:16:07;103137.48;;;-0.22;100.00
57050;BME280;42935;50.966;16.992;2024-01-30T02:19:25;103129.90;;;-0.20;100.00
57050;BME280;42935;50.966;16.992;2024-01-30T02:22:43;103127.02;;;-0.11;100.00
57050;BME280;42935;50.966;16.992;2024-01-30T02:26:04;103140.53;;;-0.15;100.00
57050;BME280;42935;50.966;16.992;2024-01-30T02:29:24;103138.30;;;0.06;100.00
57050;BME280;42935;50.966;16.992;2024-01-30T02:32:45;103129.54;;;0.11;100.00
57050;BME280;42935;50.966;16.992;2024-01-30T02:36:08;103125.56;;;0.22;100.00
57050;BME280;42935;50.966;16.992;2024-01-30T02:39:29;103127.36;;;0.24;100.00
57050;BME280;42935;50.966;16.992;2024-01-30T02:42:47;103127.73;;;0.10;100.00
57050;BME280;42935;50.966;16.992;2024-01-30T02:46:39;103129.62;;;-0.05;100.00
57050;BME280;42935;50.966;16.992;2024-01-30T02:49:57;103132.42;;;0.03;100.00
57050;BME280;42935;50.966;16.992;2024-01-30T02:53:18;103122.56;;;-0.31;100.00
57050;BME280;42935;50.966;16.992;2024-01-30T02:56:36;103135.44;;;-0.35;100.00
57050;BME280;42935;50.966;16.992;2024-01-30T02:59:54;103133.35;;;-0.28;100.00
57050;BME280;42935;50.966;16.992;2024-01-30T03:03:42;103126.80;;;-0.07;100.00
57050;BME280;42935;50.966;16.992;2024-01-30T03:07:05;103123.59;;;0.10;100.00
57050;BME280;42935;50.966;16.992;2024-01-30T03:10:21;103124.87;;;0.12;100.00
57050;BME280;42935;50.966;16.992;2024-01-30T03:13:42;103132.10;;;-0.06;100.00
57050;BME280;42935;50.966;16.992;2024-01-30T03:17:00;103133.12;;;-0.13;100.00
57050;BME280;42935;50.966;16.992;2024-01-30T03:20:52;103105.99;;;-0.19;100.00
57050;BME280;42935;50.966;16.992;2024-01-30T03:24:08;103112.76;;;0.05;100.00
57050;BME280;42935;50.966;16.992;2024-01-30T03:27:28;103124.65;;;0.05;100.00
57050;BME280;42935;50.966;16.992;2024-01-30T03:30:46;103107.07;;;-0.10;100.00
57050;BME280;42935;50.966;16.992;2024-01-30T03:34:04;103103.47;;;-0.18;100.00
57050;BME280;42935;50.966;16.992;2024-01-30T03:37:21;103120.55;;;-0.18;100.00
57050;BME280;42935;50.966;16.992;2024-01-30T03:40:41;103098.09;;;-0.22;100.00
57050;BME280;42935;50.966;16.992;2024-01-30T03:44:01;103107.29;;;-0.13;100.00
57050;BME280;42935;50.966;16.992;2024-01-30T03:47:21;103113.94;;;-0.13;100.00
57050;BME280;42935;50.966;16.992;2024-01-30T03:50:38;103119.77;;;-0.13;100.00
57050;BME280;42935;50.966;16.992;2024-01-30T03:53:55;103106.77;;;-0.10;100.00
57050;BME280;42935;50.966;16.992;2024-01-30T03:57:15;103106.62;;;-0.03;100.00
57050;BME280;42935;50.966;16.992;2024-01-30T04:00:36;103111.87;;;0.12;100.00
57050;BME280;42935;50.966;16.992;2024-01-30T04:04:27;103092.67;;;0.05;100.00
57050;BME280;42935;50.966;16.992;2024-01-30T04:07:48;103102.70;;;-0.05;100.00
57050;BME280;42935;50.966;16.992;2024-01-30T04:11:07;103094.18;;;-0.18;100.00
57050;BME280;42935;50.966;16.992;2024-01-30T04:14:25;103104.56;;;-0.07;100.00
57050;BME280;42935;50.966;16.992;2024-01-30T04:17:44;103117.63;;;0.02;100.00
57050;BME280;42935;50.966;16.992;2024-01-30T04:21:01;103119.58;;;0.01;100.00
57050;BME280;42935;50.966;16.992;2024-01-30T04:24:22;103114.63;;;-0.02;100.00
57050;BME280;42935;50.966;16.992;2024-01-30T04:27:43;103107.05;;;0.08;100.00
57050;BME280;42935;50.966;16.992;2024-01-30T04:31:01;103116.95;;;-0.06;100.00
57050;BME280;42935;50.966;16.992;2024-01-30T04:34:17;103117.82;;;-0.10;100.00
57050;BME280;42935;50.966;16.992;2024-01-30T04:38:08;103107.21;;;-0.20;100.00
57050;BME280;42935;50.966;16.992;2024-01-30T04:41:28;103117.20;;;-0.24;100.00
57050;BME280;42935;50.966;16.992;2024-01-30T04:44:49;103114.20;;;-0.24;100.00
57050;BME280;42935;50.966;16.992;2024-01-30T04:48:09;103102.16;;;-0.42;100.00
57050;BME280;42935;50.966;16.992;2024-01-30T04:51:30;103112.44;;;-0.26;100.00
57050;BME280;42935;50.966;16.992;2024-01-30T04:54:52;103112.73;;;0.07;100.00
57050;BME280;42935;50.966;16.992;2024-01-30T04:58:10;103121.78;;;0.08;100.00
57050;BME280;42935;50.966;16.992;2024-01-30T05:01:26;103110.18;;;0.17;100.00
57050;BME280;42935;50.966;16.992;2024-01-30T05:04:50;103113.16;;;0.24;100.00
57050;BME280;42935;50.966;16.992;2024-01-30T05:08:11;103120.96;;;0.46;100.00
57050;BME280;42935;50.966;16.992;2024-01-30T05:11:40;103113.00;;;0.43;100.00
57050;BME280;42935;50.966;16.992;2024-01-30T05:15:01;103116.00;;;0.34;100.00
57050;BME280;42935;50.966;16.992;2024-01-30T05:18:19;103114.91;;;0.20;100.00
57050;BME280;42935;50.966;16.992;2024-01-30T05:21:37;103120.29;;;0.19;100.00
57050;BME280;42935;50.966;16.992;2024-01-30T05:24:53;103119.69;;;0.06;100.00
57050;BME280;42935;50.966;16.992;2024-01-30T05:28:13;103130.19;;;0.08;100.00
57050;BME280;42935;50.966;16.992;2024-01-30T05:31:34;103128.14;;;0.23;100.00
57050;BME280;42935;50.966;16.992;2024-01-30T05:34:55;103115.56;;;0.20;100.00
57050;BME280;42935;50.966;16.992;2024-01-30T05:38:18;103097.20;;;-0.01;100.00
57050;BME280;42935;50.966;16.992;2024-01-30T05:41:36;103129.25;;;0.21;100.00
57050;BME280;42935;50.966;16.992;2024-01-30T05:44:58;103134.80;;;0.17;100.00
57050;BME280;42935;50.966;16.992;2024-01-30T05:48:19;103131.14;;;0.20;100.00
57050;BME280;42935;50.966;16.992;2024-01-30T05:51:37;103132.88;;;0.19;100.00
57050;BME280;42935;50.966;16.992;2024-01-30T05:55:09;103135.29;;;0.20;100.00
57050;BME280;42935;50.966;16.992;2024-01-30T05:58:33;103113.72;;;0.12;100.00
57050;BME280;42935;50.966;16.992;2024-01-30T06:01:53;103114.41;;;0.12;100.00
57050;BME280;42935;50.966;16.992;2024-01-30T06:05:10;103129.80;;;0.29;100.00
57050;BME280;42935;50.966;16.992;2024-01-30T06:08:28;103136.54;;;0.29;100.00
57050;BME280;42935;50.966;16.992;2024-01-30T06:12:19;103123.85;;;0.29;100.00
57050;BME280;42935;50.966;16.992;2024-01-30T06:15:39;103123.24;;;0.35;100.00
57050;BME280;42935;50.966;16.992;2024-01-30T06:18:58;103111.98;;;0.30;100.00
57050;BME280;42935;50.966;16.992;2024-01-30T06:22:16;103112.74;;;0.10;100.00
57050;BME280;42935;50.966;16.992;2024-01-30T06:25:35;103127.49;;;0.23;100.00
57050;BME280;42935;50.966;16.992;2024-01-30T06:28:55;103123.68;;;0.30;100.00
57050;BME280;42935;50.966;16.992;2024-01-30T06:32:13;103122.20;;;0.32;100.00
57050;BME280;42935;50.966;16.992;2024-01-30T06:35:31;103124.63;;;0.29;100.00
57050;BME280;42935;50.966;16.992;2024-01-30T06:38:50;103117.93;;;0.24;100.00
57050;BME280;42935;50.966;16.992;2024-01-30T06:42:08;103120.27;;;0.27;100.00
57050;BME280;42935;50.966;16.992;2024-01-30T06:45:25;103114.99;;;0.25;100.00
57050;BME280;42935;50.966;16.992;2024-01-30T06:48:43;103119.21;;;0.44;100.00
57050;BME280;42935;50.966;16.992;2024-01-30T06:52:35;103115.76;;;0.55;100.00
57050;BME280;42935;50.966;16.992;2024-01-30T06:55:53;103125.94;;;0.68;100.00
57050;BME280;42935;50.966;16.992;2024-01-30T06:59:15;103126.52;;;0.73;100.00
57050;BME280;42935;50.966;16.992;2024-01-30T07:02:31;103109.59;;;0.57;100.00
57050;BME280;42935;50.966;16.992;2024-01-30T07:05:52;103125.82;;;0.72;100.00
57050;BME280;42935;50.966;16.992;2024-01-30T07:09:12;103123.53;;;0.84;100.00
57050;BME280;42935;50.966;16.992;2024-01-30T07:12:36;103124.23;;;0.84;100.00
57050;BME280;42935;50.966;16.992;2024-01-30T07:15:55;103125.70;;;0.86;100.00
57050;BME280;42935;50.966;16.992;2024-01-30T07:19:15;103118.13;;;0.74;100.00
57050;BME280;42935;50.966;16.992;2024-01-30T07:22:33;103120.94;;;0.83;100.00
57050;BME280;42935;50.966;16.992;2024-01-30T07:25:57;103126.94;;;0.87;100.00
57050;BME280;42935;50.966;16.992;2024-01-30T07:29:16;103128.02;;;0.95;100.00
57050;BME280;42935;50.966;16.992;2024-01-30T07:32:37;103112.76;;;0.78;100.00
57050;BME280;42935;50.966;16.992;2024-01-30T07:35:56;103129.49;;;0.90;100.00
57050;BME280;42935;50.966;16.992;2024-01-30T07:39:17;103132.38;;;1.04;100.00
57050;BME280;42935;50.966;16.992;2024-01-30T07:42:37;103132.45;;;1.26;100.00
57050;BME280;42935;50.966;16.992;2024-01-30T07:46:28;103133.57;;;1.33;100.00
57050;BME280;42935;50.966;16.992;2024-01-30T07:49:45;103131.12;;;1.46;100.00
57050;BME280;42935;50.966;16.992;2024-01-30T07:53:06;103097.48;;;1.38;98.51
57050;BME280;42935;50.966;16.992;2024-01-30T07:56:22;103131.38;;;1.68;96.66
57050;BME280;42935;50.966;16.992;2024-01-30T07:59:44;103120.77;;;1.70;95.81
57050;BME280;42935;50.966;16.992;2024-01-30T08:03:05;103111.44;;;1.85;93.44
57050;BME280;42935;50.966;16.992;2024-01-30T08:06:27;103102.02;;;1.80;93.95
57050;BME280;42935;50.966;16.992;2024-01-30T08:09:44;103113.10;;;1.94;93.09
57050;BME280;42935;50.966;16.992;2024-01-30T08:13:01;103119.45;;;2.08;92.39
57050;BME280;42935;50.966;16.992;2024-01-30T08:16:23;103124.27;;;2.19;91.39
57050;BME280;42935;50.966;16.992;2024-01-30T08:20:15;103123.84;;;2.32;90.35
57050;BME280;42935;50.966;16.992;2024-01-30T08:23:34;103111.56;;;2.37;90.18
57050;BME280;42935;50.966;16.992;2024-01-30T08:26:54;103111.26;;;2.54;88.43
57050;BME280;42935;50.966;16.992;2024-01-30T08:30:46;103107.59;;;2.64;88.05
57050;BME280;42935;50.966;16.992;2024-01-30T08:34:11;103096.16;;;2.58;87.99
57050;BME280;42935;50.966;16.992;2024-01-30T08:37:30;103112.16;;;2.67;89.89
57050;BME280;42935;50.966;16.992;2024-01-30T08:41:21;103111.87;;;2.69;90.30
57050;BME280;42935;50.966;16.992;2024-01-30T08:44:39;103111.06;;;2.88;89.32
57050;BME280;42935;50.966;16.992;2024-01-30T08:48:03;103099.39;;;2.93;88.95
57050;BME280;42935;50.966;16.992;2024-01-30T08:51:24;103108.22;;;2.98;88.90
57050;BME280;42935;50.966;16.992;2024-01-30T08:54:49;103111.48;;;2.98;89.59
57050;BME280;42935;50.966;16.992;2024-01-30T08:58:11;103102.27;;;3.12;90.70
57050;BME280;42935;50.966;16.992;2024-01-30T09:01:29;103110.81;;;3.39;88.12
57050;BME280;42935;50.966;16.992;2024-01-30T09:04:48;103109.31;;;3.51;86.70
57050;BME280;42935;50.966;16.992;2024-01-30T09:08:05;103090.65;;;3.40;88.01
57050;BME280;42935;50.966;16.992;2024-01-30T09:11:25;103101.38;;;3.53;87.76
57050;BME280;42935;50.966;16.992;2024-01-30T09:14:44;103116.36;;;3.79;85.67
57050;BME280;42935;50.966;16.992;2024-01-30T09:18:05;103101.91;;;3.87;84.10
57050;BME280;42935;50.966;16.992;2024-01-30T09:21:26;103104.42;;;4.03;83.29
57050;BME280;42935;50.966;16.992;2024-01-30T09:24:49;103101.16;;;4.26;81.60
57050;BME280;42935;50.966;16.992;2024-01-30T09:28:11;103088.04;;;4.32;80.73
57050;BME280;42935;50.966;16.992;2024-01-30T09:32:02;103090.84;;;4.55;79.84
57050;BME280;42935;50.966;16.992;2024-01-30T09:35:22;103091.25;;;4.82;78.56
57050;BME280;42935;50.966;16.992;2024-01-30T09:38:38;103076.84;;;4.92;76.13
57050;BME280;42935;50.966;16.992;2024-01-30T09:42:11;103095.45;;;5.13;75.77
57050;BME280;42935;50.966;16.992;2024-01-30T09:45:34;103084.72;;;5.05;75.13
57050;BME280;42935;50.966;16.992;2024-01-30T09:48:56;103091.56;;;5.17;74.58
57050;BME280;42935;50.966;16.992;2024-01-30T09:52:21;103082.52;;;5.31;75.10
57050;BME280;42935;50.966;16.992;2024-01-30T09:55:46;103079.56;;;5.28;74.77
57050;BME280;42935;50.966;16.992;2024-01-30T09:59:02;103082.20;;;5.53;73.78
57050;BME280;42935;50.966;16.992;2024-01-30T10:02:27;103079.45;;;5.61;75.19
57050;BME280;42935;50.966;16.992;2024-01-30T10:05:53;103050.96;;;5.66;73.36
57050;BME280;42935;50.966;16.992;2024-01-30T10:09:42;103060.92;;;5.68;73.56
57050;BME280;42935;50.966;16.992;2024-01-30T10:13:05;103066.75;;;5.80;74.87
57050;BME280;42935;50.966;16.992;2024-01-30T10:16:25;103058.35;;;5.94;74.42
57050;BME280;42935;50.966;16.992;2024-01-30T10:19:44;103057.12;;;6.03;72.95
57050;BME280;42935;50.966;16.992;2024-01-30T10:23:02;103053.98;;;6.02;73.98
57050;BME280;42935;50.966;16.992;2024-01-30T10:26:21;103041.86;;;5.95;73.89
57050;BME280;42935;50.966;16.992;2024-01-30T10:29:38;103032.27;;;6.25;71.99
57050;BME280;42935;50.966;16.992;2024-01-30T10:32:59;103034.61;;;6.42;71.78
57050;BME280;42935;50.966;16.992;2024-01-30T10:36:29;103036.98;;;6.48;70.21
57050;BME280;42935;50.966;16.992;2024-01-30T10:39:56;103035.03;;;6.61;70.69
57050;BME280;42935;50.966;16.992;2024-01-30T10:43:22;103028.54;;;6.68;69.91
57050;BME280;42935;50.966;16.992;2024-01-30T10:46:45;103028.11;;;6.83;69.80
57050;BME280;42935;50.966;16.992;2024-01-30T10:50:40;103013.05;;;6.91;70.46
57050;BME280;42935;50.966;16.992;2024-01-30T10:54:40;103016.84;;;7.12;70.71
57050;BME280;42935;50.966;16.992;2024-01-30T10:58:16;102995.38;;;7.08;69.42
57050;BME280;42935;50.966;16.992;2024-01-30T11:01:36;103007.38;;;7.21;68.80
57050;BME280;42935;50.966;16.992;2024-01-30T11:04:59;103009.73;;;7.40;69.07
57050;BME280;42935;50.966;16.992;2024-01-30T11:08:25;103005.73;;;7.48;68.72
57050;BME280;42935;50.966;16.992;2024-01-30T11:12:22;102992.16;;;7.59;69.44
57050;BME280;42935;50.966;16.992;2024-01-30T11:15:47;102978.81;;;7.60;66.73
57050;BME280;42935;50.966;16.992;2024-01-30T11:19:11;102985.29;;;7.74;67.09
57050;BME280;42935;50.966;16.992;2024-01-30T11:22:31;102989.60;;;7.85;68.73
57050;BME280;42935;50.966;16.992;2024-01-30T11:25:53;102983.33;;;7.95;68.49
57050;BME280;42935;50.966;16.992;2024-01-30T11:29:50;102968.53;;;7.95;66.70
57050;BME280;42935;50.966;16.992;2024-01-30T11:33:10;102980.20;;;8.15;66.53
57050;BME280;42935;50.966;16.992;2024-01-30T11:36:32;102975.52;;;8.13;67.20
57050;BME280;42935;50.966;16.992;2024-01-30T11:39:59;102969.64;;;8.30;66.49
57050;BME280;42935;50.966;16.992;2024-01-30T11:43:19;102969.91;;;8.36;64.95
57050;BME280;42935;50.966;16.992;2024-01-30T11:46:37;102961.70;;;8.44;65.52
57050;BME280;42935;50.966;16.992;2024-01-30T11:49:57;102962.77;;;8.71;66.75
57050;BME280;42935;50.966;16.992;2024-01-30T11:53:16;102941.45;;;8.63;65.67
57050;BME280;42935;50.966;16.992;2024-01-30T11:56:36;102946.39;;;8.65;64.24
57050;BME280;42935;50.966;16.992;2024-01-30T11:59:54;102932.25;;;8.70;65.24
57050;BME280;42935;50.966;16.992;2024-01-30T12:03:15;102919.08;;;8.60;64.81
57050;BME280;42935;50.966;16.992;2024-01-30T12:07:07;102938.80;;;8.85;65.24
57050;BME280;42935;50.966;16.992;2024-01-30T12:10:25;102931.05;;;8.97;65.63
57050;BME280;42935;50.966;16.992;2024-01-30T12:13:50;102916.09;;;8.69;64.50
57050;BME280;42935;50.966;16.992;2024-01-30T12:17:10;102928.77;;;8.85;64.44
57050;BME280;42935;50.966;16.992;2024-01-30T12:20:30;102913.44;;;8.87;64.29
57050;BME280;42935;50.966;16.992;2024-01-30T12:23:51;102921.31;;;9.03;63.88
57050;BME280;42935;50.966;16.992;2024-01-30T12:27:14;102915.47;;;9.04;64.23
57050;BME280;42935;50.966;16.992;2024-01-30T12:30:35;102910.90;;;8.88;62.80
57050;BME280;42935;50.966;16.992;2024-01-30T12:33:55;102911.37;;;8.71;62.79
57050;BME280;42935;50.966;16.992;2024-01-30T12:37:17;102904.09;;;8.72;62.86
57050;BME280;42935;50.966;16.992;2024-01-30T12:40:42;102902.11;;;8.63;62.02
57050;BME280;42935;50.966;16.992;2024-01-30T12:44:05;102897.59;;;8.68;62.61
57050;BME280;42935;50.966;16.992;2024-01-30T12:47:24;102892.56;;;8.66;62.34
57050;BME280;42935;50.966;16.992;2024-01-30T12:50:48;102901.22;;;8.72;63.07
57050;BME280;42935;50.966;16.992;2024-01-30T12:54:09;102894.05;;;8.83;62.82
57050;BME280;42935;50.966;16.992;2024-01-30T12:57:28;102879.41;;;8.74;63.50
57050;BME280;42935;50.966;16.992;2024-01-30T13:00:46;102884.79;;;8.83;63.51
57050;BME280;42935;50.966;16.992;2024-01-30T13:04:05;102896.70;;;8.89;62.26
57050;BME280;42935;50.966;16.992;2024-01-30T13:07:22;102896.51;;;8.98;63.21
57050;BME280;42935;50.966;16.992;2024-01-30T13:10:40;102892.97;;;9.00;63.44
57050;BME280;42935;50.966;16.992;2024-01-30T13:14:00;102885.94;;;9.15;63.54
57050;BME280;42935;50.966;16.992;2024-01-30T13:17:19;102885.55;;;8.91;63.06
57050;BME280;42935;50.966;16.992;2024-01-30T13:20:38;102877.06;;;8.88;63.62
57050;BME280;42935;50.966;16.992;2024-01-30T13:23:57;102875.16;;;8.82;64.47
57050;BME280;42935;50.966;16.992;2024-01-30T13:27:17;102874.35;;;8.84;64.41
57050;BME280;42935;50.966;16.992;2024-01-30T13:30:35;102866.21;;;8.87;64.18
57050;BME280;42935;50.966;16.992;2024-01-30T13:33:53;102867.86;;;8.91;63.48
57050;BME280;42935;50.966;16.992;2024-01-30T13:37:14;102868.02;;;9.17;64.30
57050;BME280;42935;50.966;16.992;2024-01-30T13:40:35;102872.22;;;9.14;64.21
57050;BME280;42935;50.966;16.992;2024-01-30T13:43:59;102866.25;;;9.27;64.50
57050;BME280;42935;50.966;16.992;2024-01-30T13:47:23;102857.94;;;9.03;64.05
57050;BME280;42935;50.966;16.992;2024-01-30T13:50:43;102860.59;;;8.86;64.51
57050;BME280;42935;50.966;16.992;2024-01-30T13:54:33;102865.04;;;9.20;65.25
57050;BME280;42935;50.966;16.992;2024-01-30T13:57:54;102855.34;;;9.22;65.35
57050;BME280;42935;50.966;16.992;2024-01-30T14:01:23;102858.24;;;8.50;64.90
57050;BME280;42935;50.966;16.992;2024-01-30T14:04:41;102863.16;;;8.18;66.26
57050;BME280;42935;50.966;16.992;2024-01-30T14:08:06;102860.29;;;8.15;67.44
57050;BME280;42935;50.966;16.992;2024-01-30T14:11:24;102846.01;;;8.20;66.73
57050;BME280;42935;50.966;16.992;2024-01-30T14:15:17;102851.67;;;8.39;66.32
57050;BME280;42935;50.966;16.992;2024-01-30T14:19:10;102851.05;;;8.52;66.41
57050;BME280;42935;50.966;16.992;2024-01-30T14:22:32;102859.62;;;8.58;67.14
57050;BME280;42935;50.966;16.992;2024-01-30T14:26:23;102861.63;;;8.69;68.29
57050;BME280;42935;50.966;16.992;2024-01-30T14:30:13;102819.29;;;8.29;67.95
57050;BME280;42935;50.966;16.992;2024-01-30T14:34:12;102859.59;;;8.67;67.63
57050;BME280;42935;50.966;16.992;2024-01-30T14:37:33;102849.93;;;8.35;67.30
57050;BME280;42935;50.966;16.992;2024-01-30T14:40:55;102863.35;;;8.16;68.03
57050;BME280;42935;50.966;16.992;2024-01-30T14:44:46;102865.47;;;8.05;68.68
57050;BME280;42935;50.966;16.992;2024-01-30T14:48:44;102866.84;;;7.87;69.95
57050;BME280;42935;50.966;16.992;2024-01-30T14:52:10;102863.85;;;7.70;69.70
57050;BME280;42935;50.966;16.992;2024-01-30T14:56:03;102867.41;;;7.25;71.40
57050;BME280;42935;50.966;16.992;2024-01-30T14:59:54;102855.56;;;7.20;72.72
57050;BME280;42935;50.966;16.992;2024-01-30T15:03:14;102865.17;;;6.91;73.83
57050;BME280;42935;50.966;16.992;2024-01-30T15:06:36;102857.44;;;6.61;74.67
57050;BME280;42935;50.966;16.992;2024-01-30T15:09:55;102866.87;;;6.52;75.75
57050;BME280;42935;50.966;16.992;2024-01-30T15:13:17;102862.20;;;6.43;75.05
57050;BME280;42935;50.966;16.992;2024-01-30T15:16:38;102867.93;;;6.41;74.25
57050;BME280;42935;50.966;16.992;2024-01-30T15:19:57;102867.08;;;6.25;75.02
57050;BME280;42935;50.966;16.992;2024-01-30T15:23:50;102869.57;;;6.01;75.74
57050;BME280;42935;50.966;16.992;2024-01-30T15:27:17;102875.09;;;5.72;77.39
57050;BME280;42935;50.966;16.992;2024-01-30T15:30:41;102877.05;;;5.27;80.72
57050;BME280;42935;50.966;16.992;2024-01-30T15:34:34;102861.89;;;5.04;81.29
57050;BME280;42935;50.966;16.992;2024-01-30T15:37:54;102883.66;;;5.02;81.29
57050;BME280;42935;50.966;16.992;2024-01-30T15:41:14;102875.78;;;4.86;81.07
57050;BME280;42935;50.966;16.992;2024-01-30T15:45:12;102893.49;;;4.85;80.69
57050;BME280;42935;50.966;16.992;2024-01-30T15:48:41;102891.92;;;4.84;79.97
57050;BME280;42935;50.966;16.992;2024-01-30T15:52:06;102885.63;;;4.77;81.29
57050;BME280;42935;50.966;16.992;2024-01-30T15:55:35;102889.91;;;4.51;81.80
57050;BME280;42935;50.966;16.992;2024-01-30T15:59:32;102896.41;;;4.46;83.25
57050;BME280;42935;50.966;16.992;2024-01-30T16:03:01;102897.84;;;4.30;84.71
57050;BME280;42935;50.966;16.992;2024-01-30T16:06:29;102883.51;;;4.04;86.89
57050;BME280;42935;50.966;16.992;2024-01-30T16:09:46;102902.77;;;4.01;88.24
57050;BME280;42935;50.966;16.992;2024-01-30T16:13:10;102899.70;;;3.91;88.74
57050;BME280;42935;50.966;16.992;2024-01-30T16:16:30;102888.17;;;3.83;89.05
57050;BME280;42935;50.966;16.992;2024-01-30T16:19:48;102899.09;;;3.80;89.42
57050;BME280;42935;50.966;16.992;2024-01-30T16:23:13;102905.32;;;3.87;89.79
57050;BME280;42935;50.966;16.992;2024-01-30T16:26:35;102909.30;;;3.69;91.08
57050;BME280;42935;50.966;16.992;2024-01-30T16:29:54;102906.62;;;3.59;91.54
57050;BME280;42935;50.966;16.992;2024-01-30T16:33:13;102895.74;;;3.45;91.40
57050;BME280;42935;50.966;16.992;2024-01-30T16:36:31;102912.20;;;3.51;91.71
57050;BME280;42935;50.966;16.992;2024-01-30T16:39:55;102919.44;;;3.57;91.08
57050;BME280;42935;50.966;16.992;2024-01-30T16:43:15;102910.07;;;3.44;92.56
57050;BME280;42935;50.966;16.992;2024-01-30T16:46:35;102912.13;;;3.27;94.57
57050;BME280;42935;50.966;16.992;2024-01-30T16:49:53;102919.34;;;3.29;92.98
57050;BME280;42935;50.966;16.992;2024-01-30T16:53:20;102913.63;;;3.40;88.91
57050;BME280;42935;50.966;16.992;2024-01-30T16:56:38;102930.84;;;3.56;86.82
57050;BME280;42935;50.966;16.992;2024-01-30T16:59:56;102918.93;;;3.48;85.71
57050;BME280;42935;50.966;16.992;2024-01-30T17:03:24;102935.02;;;3.60;84.43
57050;BME280;42935;50.966;16.992;2024-01-30T17:06:46;102933.55;;;3.48;84.29
57050;BME280;42935;50.966;16.992;2024-01-30T17:10:08;102943.62;;;3.46;84.58
57050;BME280;42935;50.966;16.992;2024-01-30T17:13:28;102936.96;;;3.40;85.21
57050;BME280;42935;50.966;16.992;2024-01-30T17:16:45;102939.75;;;3.28;85.55
57050;BME280;42935;50.966;16.992;2024-01-30T17:20:09;102943.54;;;3.27;86.24
57050;BME280;42935;50.966;16.992;2024-01-30T17:23:30;102937.02;;;3.20;87.54
57050;BME280;42935;50.966;16.992;2024-01-30T17:27:03;102918.68;;;2.99;89.86
57050;BME280;42935;50.966;16.992;2024-01-30T17:30:27;102937.82;;;2.85;91.67
57050;BME280;42935;50.966;16.992;2024-01-30T17:33:47;102940.30;;;2.75;93.18
57050;BME280;42935;50.966;16.992;2024-01-30T17:37:04;102922.64;;;2.64;93.56